createdAt,value
2017-09-02T00:00:21.520Z,89.43
2017-09-02T00:02:49.171Z,89.46
2017-09-02T00:05:16.771Z,89.16
2017-09-02T00:07:44.359Z,88.54
2017-09-02T00:10:11.977Z,88.88
2017-09-02T00:12:39.562Z,89.11
2017-09-02T00:15:07.174Z,89.25
2017-09-02T00:17:34.857Z,88.20
2017-09-02T00:20:02.489Z,87.91
2017-09-02T00:22:30.082Z,87.50
2017-09-02T00:24:58.020Z,87.52
2017-09-02T00:27:25.599Z,88.21
2017-09-02T00:29:53.191Z,88.11
2017-09-02T00:32:20.862Z,88.06
2017-09-02T00:34:48.490Z,87.71
2017-09-02T00:37:16.125Z,87.85
2017-09-02T00:39:43.748Z,87.69
2017-09-02T00:42:11.374Z,87.73
2017-09-02T00:44:38.951Z,88.06
2017-09-02T00:47:06.578Z,87.56
2017-09-02T00:49:34.167Z,87.63
2017-09-02T00:52:01.783Z,87.47
2017-09-02T00:54:29.402Z,87.56
2017-09-02T00:56:57.418Z,87.54
2017-09-02T00:59:25.032Z,88.13
2017-09-02T01:01:52.647Z,87.16
2017-09-02T01:04:20.280Z,88.10
2017-09-02T01:06:47.882Z,87.14
2017-09-02T01:09:16.154Z,87.36
2017-09-02T01:11:43.717Z,87.69
2017-09-02T01:14:11.417Z,86.70
2017-09-02T01:16:39.002Z,87.38
2017-09-02T01:19:06.626Z,87.10
2017-09-02T01:21:34.246Z,87.02
2017-09-02T01:24:01.913Z,87.06
2017-09-02T01:26:29.507Z,87.14
2017-09-02T01:28:57.106Z,87.24
2017-09-02T01:31:24.719Z,87.36
2017-09-02T01:33:52.480Z,87.02
2017-09-02T01:36:20.087Z,87.09
2017-09-02T01:38:47.705Z,86.86
2017-09-02T01:41:15.318Z,86.79
2017-09-02T01:43:44.195Z,86.88
2017-09-02T01:46:11.803Z,87.09
2017-09-02T01:48:39.391Z,86.81
2017-09-02T01:51:07.323Z,86.54
2017-09-02T01:53:35.042Z,87.00
2017-09-02T01:56:02.648Z,86.63
2017-09-02T01:58:30.263Z,87.16
2017-09-02T02:00:57.838Z,87.32
2017-09-02T02:03:25.502Z,87.41
2017-09-02T02:05:53.084Z,87.71
2017-09-02T02:08:20.797Z,87.56
2017-09-02T02:10:49.806Z,87.18
2017-09-02T02:13:17.539Z,87.41
2017-09-02T02:15:45.126Z,87.23
2017-09-02T02:18:13.041Z,87.60
2017-09-02T02:20:40.639Z,88.01
2017-09-02T02:23:08.217Z,88.02
2017-09-02T02:25:35.889Z,88.00
2017-09-02T02:28:03.478Z,87.75
2017-09-02T02:30:31.169Z,87.84
2017-09-02T02:32:58.885Z,88.09
2017-09-02T02:35:26.484Z,87.94
2017-09-02T02:37:54.145Z,88.07
2017-09-02T02:40:21.751Z,87.74
2017-09-02T02:42:49.356Z,88.00
2017-09-02T02:45:16.986Z,88.10
2017-09-02T02:47:44.672Z,88.02
2017-09-02T02:50:12.270Z,88.25
2017-09-02T02:52:39.880Z,88.01
2017-09-02T02:55:07.470Z,87.98
2017-09-02T02:57:35.103Z,88.17
2017-09-02T03:00:02.685Z,88.38
2017-09-02T03:02:30.284Z,88.31
2017-09-02T03:04:57.881Z,88.39
2017-09-02T03:07:25.488Z,88.76
2017-09-02T03:09:53.078Z,88.64
2017-09-02T03:12:20.821Z,88.86
2017-09-02T03:14:48.416Z,89.13
2017-09-02T03:17:16.432Z,89.47
2017-09-02T03:19:44.030Z,89.17
2017-09-02T03:22:11.614Z,89.15
2017-09-02T03:24:39.230Z,89.43
2017-09-02T03:27:06.817Z,89.54
2017-09-02T03:29:34.583Z,89.24
2017-09-02T03:32:02.178Z,89.40
2017-09-02T03:34:29.783Z,89.40
2017-09-02T03:36:57.387Z,89.61
2017-09-02T03:39:25.047Z,89.68
2017-09-02T03:41:52.642Z,89.84
2017-09-02T03:44:20.616Z,89.67
2017-09-02T03:46:48.306Z,89.85
2017-09-02T03:49:15.908Z,90.20
2017-09-02T03:51:43.522Z,90.31
2017-09-02T03:54:11.122Z,90.27
2017-09-02T03:56:38.735Z,89.85
2017-09-02T03:59:06.318Z,90.16
2017-09-02T04:01:33.919Z,90.13
2017-09-02T04:04:01.510Z,90.03
2017-09-02T04:06:29.122Z,90.04
2017-09-02T04:08:56.712Z,90.30
2017-09-02T04:11:24.692Z,90.29
2017-09-02T04:13:52.283Z,90.07
2017-09-02T04:16:19.876Z,90.25
2017-09-02T04:18:47.518Z,90.29
2017-09-02T04:21:15.135Z,90.42
2017-09-02T04:23:42.750Z,90.37
2017-09-02T04:26:10.345Z,90.52
2017-09-02T04:28:37.957Z,90.54
2017-09-02T04:31:05.548Z,90.68
2017-09-02T04:33:33.151Z,90.62
2017-09-02T04:36:00.730Z,90.79
2017-09-02T04:38:28.341Z,90.46
2017-09-02T04:40:55.960Z,90.31
2017-09-02T04:43:23.855Z,90.65
2017-09-02T04:45:51.456Z,90.78
2017-09-02T04:48:19.032Z,90.64
2017-09-02T04:50:46.656Z,90.80
2017-09-02T04:53:14.243Z,90.21
2017-09-02T04:55:41.877Z,90.35
2017-09-02T04:58:09.462Z,90.34
2017-09-02T05:00:37.086Z,90.53
2017-09-02T05:03:04.672Z,90.63
2017-09-02T05:05:32.292Z,90.71
2017-09-02T05:07:59.884Z,90.44
2017-09-02T05:10:27.629Z,90.38
2017-09-02T05:12:55.255Z,90.44
2017-09-02T05:15:23.137Z,90.43
2017-09-02T05:17:50.737Z,90.41
2017-09-02T05:20:18.446Z,90.19
2017-09-02T05:22:46.054Z,90.14
2017-09-02T05:25:13.656Z,89.99
2017-09-02T05:27:41.293Z,90.12
2017-09-02T05:30:08.873Z,90.02
2017-09-02T05:32:36.467Z,89.95
2017-09-02T05:35:04.019Z,89.93
2017-09-02T05:37:31.627Z,89.73
2017-09-02T05:39:59.215Z,89.77
2017-09-02T05:42:27.294Z,90.09
2017-09-02T05:44:55.054Z,89.42
2017-09-02T05:47:22.666Z,89.09
2017-09-02T05:49:50.297Z,89.32
2017-09-02T05:52:17.868Z,89.52
2017-09-02T05:54:45.503Z,90.64
2017-09-02T05:57:13.098Z,90.80
2017-09-02T05:59:40.733Z,90.93
2017-09-02T06:02:08.337Z,90.56
2017-09-02T06:04:35.951Z,89.21
2017-09-02T06:07:03.596Z,89.45
2017-09-02T06:09:31.220Z,89.73
2017-09-02T06:11:58.816Z,90.16
2017-09-02T06:14:26.997Z,89.77
2017-09-02T06:16:54.635Z,89.76
2017-09-02T06:19:22.331Z,89.85
2017-09-02T06:21:49.972Z,89.99
2017-09-02T06:24:17.703Z,89.75
2017-09-02T06:26:45.326Z,89.88
2017-09-02T06:29:12.929Z,90.10
2017-09-02T06:31:40.540Z,90.61
2017-09-02T06:34:08.142Z,90.18
2017-09-02T06:36:36.045Z,89.57
2017-09-02T06:39:03.635Z,90.04
2017-09-02T06:41:31.243Z,89.90
2017-09-02T06:43:58.848Z,89.84
2017-09-02T06:46:26.469Z,89.66
2017-09-02T06:48:54.108Z,89.29
2017-09-02T06:51:21.703Z,88.82
2017-09-02T06:53:49.352Z,89.31
2017-09-02T06:56:17.209Z,89.38
2017-09-02T06:58:44.849Z,89.94
2017-09-02T07:01:12.469Z,89.55
2017-09-02T07:03:40.453Z,89.20
2017-09-02T07:06:08.028Z,89.57
2017-09-02T07:08:35.634Z,89.43
2017-09-02T07:11:03.381Z,90.52
2017-09-02T07:13:31.001Z,90.75
2017-09-02T07:15:58.680Z,90.56
2017-09-02T07:18:26.276Z,90.13
2017-09-02T07:20:53.891Z,89.22
2017-09-02T07:23:21.510Z,89.50
2017-09-02T07:25:49.124Z,88.90
2017-09-02T07:28:16.785Z,89.38
2017-09-02T07:30:44.390Z,89.54
2017-09-02T07:33:12.009Z,89.41
2017-09-02T07:35:39.602Z,88.76
2017-09-02T07:38:07.225Z,88.80
2017-09-02T07:40:34.822Z,88.63
2017-09-02T07:43:02.447Z,88.84
2017-09-02T07:45:30.030Z,88.48
2017-09-02T07:47:57.769Z,88.36
2017-09-02T07:50:25.354Z,88.27
2017-09-02T07:52:53.269Z,88.66
2017-09-02T07:55:20.872Z,88.62
2017-09-02T07:57:48.496Z,88.96
2017-09-02T08:00:16.077Z,89.20
2017-09-02T08:02:43.709Z,89.53
2017-09-02T08:05:11.334Z,89.17
2017-09-02T08:07:38.910Z,89.45
2017-09-02T08:10:06.532Z,89.56
2017-09-02T08:12:34.117Z,89.79
2017-09-02T08:15:02.187Z,89.81
2017-09-02T08:17:29.800Z,89.69
2017-09-02T08:19:57.373Z,88.99
2017-09-02T08:22:24.984Z,88.72
2017-09-02T08:24:52.608Z,88.87
2017-09-02T08:27:20.229Z,89.28
2017-09-02T08:29:47.958Z,88.82
2017-09-02T08:32:15.988Z,88.77
2017-09-02T08:34:43.608Z,88.25
2017-09-02T08:37:11.243Z,89.55
2017-09-02T08:39:38.897Z,90.19
2017-09-02T08:42:06.813Z,89.91
2017-09-02T08:44:34.412Z,90.00
2017-09-02T08:47:02.370Z,88.91
2017-09-02T08:49:29.947Z,88.75
2017-09-02T08:51:57.552Z,89.28
2017-09-02T08:54:25.158Z,89.16
2017-09-02T08:56:52.761Z,89.07
2017-09-02T08:59:20.374Z,88.68
2017-09-02T09:01:47.981Z,88.07
2017-09-02T09:04:15.571Z,88.58
2017-09-02T09:06:43.197Z,88.26
2017-09-02T09:09:10.818Z,88.61
2017-09-02T09:11:38.421Z,88.64
2017-09-02T09:14:06.027Z,88.33
2017-09-02T09:16:33.642Z,87.72
2017-09-02T09:19:01.544Z,88.20
2017-09-02T09:21:29.190Z,87.80
2017-09-02T09:23:56.812Z,88.15
2017-09-02T09:26:24.426Z,88.17
2017-09-02T09:28:52.035Z,87.94
2017-09-02T09:31:19.645Z,88.03
2017-09-02T09:33:47.228Z,88.59
2017-09-02T09:36:15.261Z,88.63
2017-09-02T09:38:42.905Z,87.58
2017-09-02T09:41:10.511Z,87.40
2017-09-02T09:43:38.100Z,88.05
2017-09-02T09:46:05.864Z,88.87
2017-09-02T09:48:33.466Z,88.02
2017-09-02T09:51:01.479Z,88.47
2017-09-02T09:53:29.114Z,89.23
2017-09-02T09:55:56.830Z,89.23
2017-09-02T09:58:24.512Z,88.98
2017-09-02T10:00:52.246Z,88.85
2017-09-02T10:03:19.929Z,88.77
2017-09-02T10:05:47.577Z,88.57
2017-09-02T10:08:15.173Z,87.79
2017-09-02T10:10:42.800Z,88.13
2017-09-02T10:13:10.557Z,89.44
2017-09-02T10:15:38.167Z,89.11
2017-09-02T10:18:06.208Z,89.04
2017-09-02T10:20:33.799Z,89.08
2017-09-02T10:23:01.388Z,88.93
2017-09-02T10:25:29.014Z,88.48
2017-09-02T10:27:56.632Z,89.67
2017-09-02T10:30:24.277Z,88.96
2017-09-02T10:32:51.919Z,88.74
2017-09-02T10:35:19.530Z,87.08
2017-09-02T10:37:47.130Z,86.39
2017-09-02T10:40:15.023Z,85.86
2017-09-02T10:42:42.638Z,86.56
2017-09-02T10:45:10.215Z,85.68
2017-09-02T10:47:37.843Z,85.52
2017-09-02T10:50:05.435Z,86.86
2017-09-02T10:52:33.069Z,86.84
2017-09-02T10:55:00.654Z,86.89
2017-09-02T10:57:28.321Z,85.53
2017-09-02T10:59:55.941Z,84.33
2017-09-02T11:02:23.883Z,86.25
2017-09-02T11:04:51.493Z,86.27
2017-09-02T11:07:19.081Z,86.58
2017-09-02T11:09:46.689Z,85.85
2017-09-02T11:12:14.279Z,85.52
2017-09-02T11:14:42.021Z,85.35
2017-09-02T11:17:09.633Z,86.10
2017-09-02T11:19:37.313Z,85.92
2017-09-02T11:22:04.923Z,87.28
2017-09-02T11:24:33.054Z,85.97
2017-09-02T11:27:00.664Z,86.73
2017-09-02T11:29:28.252Z,86.51
2017-09-02T11:31:55.867Z,86.41
2017-09-02T11:34:23.474Z,87.58
2017-09-02T11:36:51.108Z,87.41
2017-09-02T11:39:18.714Z,87.20
2017-09-02T11:41:46.364Z,86.89
2017-09-02T11:44:13.997Z,87.70
2017-09-02T11:46:41.646Z,88.26
2017-09-02T11:49:09.290Z,88.20
2017-09-02T11:51:36.913Z,87.70
2017-09-02T11:54:04.542Z,87.23
2017-09-02T11:56:32.153Z,86.79
2017-09-02T11:58:59.743Z,85.68
2017-09-02T12:01:27.400Z,86.86
2017-09-02T12:03:55.045Z,86.84
2017-09-02T12:06:22.766Z,87.47
2017-09-02T12:08:50.542Z,86.94
2017-09-02T12:11:18.197Z,86.32
2017-09-02T12:13:45.892Z,86.56
2017-09-02T12:16:13.895Z,86.42
2017-09-02T12:18:41.628Z,86.64
2017-09-02T12:21:09.342Z,86.10
2017-09-02T12:23:36.978Z,86.72
2017-09-02T12:26:04.675Z,86.12
2017-09-02T12:28:32.545Z,86.47
2017-09-02T12:31:00.585Z,86.17
2017-09-02T12:33:28.247Z,86.55
2017-09-02T12:35:55.873Z,85.91
2017-09-02T12:38:23.513Z,84.57
2017-09-02T12:40:51.136Z,84.73
2017-09-02T12:43:18.852Z,84.97
2017-09-02T12:45:46.512Z,84.78
2017-09-02T12:48:14.146Z,84.28
2017-09-02T12:50:41.760Z,84.35
2017-09-02T12:53:09.409Z,86.05
2017-09-02T12:55:37.021Z,86.09
2017-09-02T12:58:05.286Z,85.76
2017-09-02T13:00:32.891Z,85.49
2017-09-02T13:03:00.607Z,86.10
2017-09-02T13:05:28.257Z,85.57
2017-09-02T13:07:55.948Z,86.53
2017-09-02T13:10:23.772Z,86.91
2017-09-02T13:12:51.406Z,86.01
2017-09-02T13:15:19.076Z,87.10
2017-09-02T13:17:46.749Z,86.93
2017-09-02T13:20:14.511Z,87.40
2017-09-02T13:22:42.683Z,88.01
2017-09-02T13:25:10.290Z,87.55
2017-09-02T13:27:37.882Z,87.58
2017-09-02T13:30:05.701Z,87.96
2017-09-02T13:32:33.382Z,87.61
2017-09-02T13:35:03.432Z,87.74
2017-09-02T13:37:31.030Z,87.32
2017-09-02T13:39:58.827Z,86.79
2017-09-02T13:42:26.449Z,86.89
2017-09-02T13:44:54.290Z,87.50
2017-09-02T13:47:21.958Z,87.92
2017-09-02T13:49:49.665Z,87.45
2017-09-02T13:52:17.312Z,86.72
2017-09-02T13:54:44.941Z,87.20
2017-09-02T14:00:05.888Z,85.08
2017-09-02T14:02:34.295Z,84.11
2017-09-02T14:05:02.019Z,85.08
2017-09-02T14:07:30.029Z,85.18
2017-09-02T14:09:57.793Z,83.60
2017-09-02T14:12:25.590Z,82.18
2017-09-02T14:14:54.684Z,82.69
2017-09-02T14:17:22.293Z,82.79
2017-09-02T14:19:50.360Z,83.16
2017-09-02T14:22:18.107Z,83.58
2017-09-02T14:24:46.945Z,82.95
2017-09-02T14:27:14.696Z,82.46
2017-09-02T14:29:42.355Z,81.45
2017-09-02T14:32:10.027Z,82.02
2017-09-02T14:34:37.812Z,81.91
2017-09-02T14:37:05.537Z,83.17
2017-09-02T14:39:33.143Z,84.75
2017-09-02T14:42:01.123Z,84.12
2017-09-02T14:44:28.875Z,84.55
2017-09-02T14:46:56.829Z,82.88
2017-09-02T14:49:24.501Z,82.83
2017-09-02T14:51:52.113Z,82.42
2017-09-02T14:54:19.849Z,84.70
2017-09-02T14:56:47.952Z,84.52
2017-09-02T14:59:15.604Z,82.61
2017-09-02T15:01:43.217Z,83.44
2017-09-02T15:04:11.329Z,80.50
2017-09-02T15:06:40.264Z,80.85
2017-09-02T15:09:08.005Z,78.61
2017-09-02T15:11:36.865Z,81.59
2017-09-02T15:14:04.559Z,80.73
2017-09-02T15:16:32.209Z,81.24
2017-09-02T15:19:00.331Z,82.87
2017-09-02T15:21:28.987Z,80.98
2017-09-02T15:23:56.680Z,80.65
2017-09-02T15:26:24.816Z,81.81
2017-09-02T15:28:52.525Z,78.22
2017-09-02T15:31:21.396Z,78.76
2017-09-02T15:33:49.239Z,79.88
2017-09-02T15:36:16.840Z,81.36
2017-09-02T15:38:44.474Z,80.83
2017-09-02T15:41:12.053Z,81.67
2017-09-02T15:43:40.264Z,82.05
2017-09-02T15:46:07.915Z,81.34
2017-09-02T15:48:35.891Z,81.61
2017-09-02T15:51:03.478Z,81.52
2017-09-02T15:53:31.143Z,81.59
2017-09-02T15:55:59.460Z,81.49
2017-09-02T15:58:27.102Z,81.81
2017-09-02T16:00:55.765Z,80.45
2017-09-02T16:03:23.374Z,80.13
2017-09-02T16:05:52.548Z,81.70
2017-09-02T16:08:23.052Z,81.84
2017-09-02T16:10:52.289Z,83.12
2017-09-02T16:13:21.584Z,81.59
2017-09-02T16:15:50.998Z,80.96
2017-09-02T16:18:18.772Z,80.60
2017-09-02T16:20:46.481Z,81.29
2017-09-02T16:23:15.294Z,80.96
2017-09-02T16:25:42.936Z,80.19
2017-09-02T16:28:12.583Z,80.35
2017-09-02T16:30:42.536Z,79.83
2017-09-02T16:33:10.233Z,80.08
2017-09-02T16:35:37.973Z,80.57
2017-09-02T16:38:05.629Z,81.48
2017-09-02T16:40:33.253Z,81.01
2017-09-02T16:43:02.531Z,80.53
2017-09-02T16:45:30.838Z,80.98
2017-09-02T16:47:58.463Z,79.20
2017-09-02T16:50:26.161Z,80.53
2017-09-02T16:52:53.781Z,80.42
2017-09-02T16:55:21.583Z,80.97
2017-09-02T16:57:49.574Z,81.49
2017-09-02T17:00:17.179Z,81.09
2017-09-02T17:02:44.793Z,80.81
2017-09-02T17:05:13.460Z,81.88
2017-09-02T17:07:41.129Z,82.64
2017-09-02T17:10:08.754Z,82.48
2017-09-02T17:12:36.351Z,82.44
2017-09-02T17:15:04.269Z,83.26
2017-09-02T17:17:31.893Z,83.05
2017-09-02T17:19:59.522Z,84.25
2017-09-02T17:22:27.107Z,85.09
2017-09-02T17:24:55.533Z,83.24
2017-09-02T17:27:24.339Z,83.35
2017-09-02T17:29:51.918Z,83.80
2017-09-02T17:32:19.579Z,84.28
2017-09-02T17:34:47.644Z,84.64
2017-09-02T17:37:16.337Z,85.60
2017-09-02T17:39:44.969Z,86.13
2017-09-02T17:42:12.813Z,86.11
2017-09-02T17:44:40.429Z,86.21
2017-09-02T17:47:08.066Z,86.21
2017-09-02T17:49:36.937Z,86.32
2017-09-02T17:52:04.701Z,86.45
2017-09-02T17:54:32.475Z,86.20
2017-09-02T17:57:00.108Z,86.85
2017-09-02T17:59:27.718Z,86.33
2017-09-02T18:01:55.611Z,86.70
2017-09-02T18:04:32.838Z,86.62
2017-09-02T18:07:01.129Z,87.05
2017-09-02T18:09:30.784Z,86.26
2017-09-02T18:11:58.465Z,86.52
2017-09-02T18:14:27.361Z,86.40
2017-09-02T18:16:59.709Z,86.53
2017-09-02T18:19:32.502Z,86.73
2017-09-02T18:22:02.010Z,86.58
2017-09-02T18:24:29.717Z,86.71
2017-09-02T18:27:01.534Z,86.78
2017-09-02T18:29:30.032Z,86.90
2017-09-02T18:31:59.841Z,87.10
2017-09-02T18:34:31.568Z,87.80
2017-09-02T18:37:00.544Z,87.41
2017-09-02T18:39:30.878Z,87.48
2017-09-02T18:41:59.310Z,87.83
2017-09-02T18:44:26.930Z,87.74
2017-09-02T18:46:54.516Z,87.47
2017-09-02T18:49:23.272Z,87.60
2017-09-02T18:51:51.912Z,87.85
2017-09-02T18:54:21.071Z,87.97
2017-09-02T18:56:48.922Z,87.85
2017-09-02T18:59:16.558Z,87.75
2017-09-02T19:01:46.070Z,88.45
2017-09-02T19:04:14.142Z,88.22
2017-09-02T19:06:42.797Z,88.34
2017-09-02T19:09:13.096Z,88.58
2017-09-02T19:11:41.147Z,88.71
2017-09-02T19:14:08.848Z,89.06
2017-09-02T19:16:38.111Z,88.57
2017-09-02T19:19:06.920Z,88.88
2017-09-02T19:21:37.303Z,89.49
2017-09-02T19:24:04.918Z,89.07
2017-09-02T19:26:32.559Z,89.35
2017-09-02T19:29:02.334Z,89.39
2017-09-02T19:31:34.000Z,89.59
2017-09-02T19:34:02.580Z,89.90
2017-09-02T19:36:33.818Z,90.18
2017-09-02T19:39:02.722Z,90.76
2017-09-02T19:41:36.592Z,90.72
2017-09-02T19:44:08.766Z,90.28
2017-09-02T19:46:37.613Z,89.77
2017-09-02T19:49:09.088Z,90.64
2017-09-02T19:51:36.683Z,89.96
2017-09-02T19:54:05.943Z,89.84
2017-09-02T19:56:33.562Z,89.82
2017-09-02T19:59:04.106Z,89.96
2017-09-02T20:01:34.845Z,90.33
2017-09-02T20:04:02.558Z,90.54
2017-09-02T20:06:30.459Z,90.44
2017-09-02T20:08:59.313Z,89.83
2017-09-02T20:11:27.075Z,90.03
2017-09-02T20:13:54.687Z,90.22
2017-09-02T20:16:22.671Z,90.74
2017-09-02T20:18:50.379Z,90.15
2017-09-02T20:21:18.261Z,89.33
2017-09-02T20:23:45.887Z,90.09
2017-09-02T20:26:13.898Z,89.96
2017-09-02T20:28:41.500Z,89.52
2017-09-02T20:31:09.101Z,89.77
2017-09-02T20:33:36.750Z,89.59
2017-09-02T20:36:04.382Z,89.55
2017-09-02T20:38:32.129Z,89.61
2017-09-02T20:40:59.759Z,88.92
2017-09-02T20:43:27.387Z,88.91
2017-09-02T20:45:54.999Z,88.94
2017-09-02T20:48:22.785Z,89.17
2017-09-02T20:50:50.399Z,89.27
2017-09-02T20:53:18.386Z,90.13
2017-09-02T20:55:46.089Z,90.37
2017-09-02T20:58:13.723Z,90.25
2017-09-02T21:00:41.355Z,90.50
2017-09-02T21:03:09.011Z,90.31
2017-09-02T21:05:36.686Z,90.02
2017-09-02T21:08:04.334Z,90.49
2017-09-02T21:10:32.033Z,90.29
2017-09-02T21:13:01.130Z,89.78
2017-09-02T21:15:29.146Z,90.15
2017-09-02T21:17:56.832Z,89.92
2017-09-02T21:20:24.428Z,89.82
2017-09-02T21:22:52.072Z,89.63
2017-09-02T21:25:19.678Z,89.42
2017-09-02T21:27:47.388Z,89.76
2017-09-02T21:30:16.403Z,89.56
2017-09-02T21:32:44.229Z,90.00
2017-09-02T21:35:11.906Z,89.53
2017-09-02T21:37:39.514Z,89.11
2017-09-02T21:40:07.119Z,89.24
2017-09-02T21:42:34.744Z,89.79
2017-09-02T21:45:02.342Z,89.62
2017-09-02T21:47:29.926Z,90.57
2017-09-02T21:49:57.529Z,91.04
2017-09-02T21:52:25.147Z,91.27
2017-09-02T21:54:52.740Z,91.20
2017-09-02T21:57:25.758Z,91.36
2017-09-02T21:59:53.731Z,91.41
2017-09-02T22:02:23.191Z,91.44
2017-09-02T22:04:52.231Z,91.76
2017-09-02T22:07:21.294Z,91.50
2017-09-02T22:09:48.893Z,91.36
2017-09-02T22:12:16.523Z,90.97
2017-09-02T22:14:44.254Z,89.81
2017-09-02T22:17:11.870Z,90.41
2017-09-02T22:19:39.492Z,89.56
2017-09-02T22:22:07.104Z,89.91
2017-09-02T22:24:34.684Z,89.97
2017-09-02T22:27:02.384Z,89.89
2017-09-02T22:29:29.975Z,89.87
2017-09-02T22:31:58.836Z,90.10
2017-09-02T22:34:27.807Z,89.89
2017-09-02T22:36:55.460Z,89.74
2017-09-02T22:39:23.067Z,90.43
2017-09-02T22:41:50.691Z,90.57
2017-09-02T22:44:18.310Z,90.35
2017-09-02T22:46:45.943Z,89.99
2017-09-02T22:49:13.542Z,90.29
2017-09-02T22:51:41.163Z,90.11
2017-09-02T22:54:08.750Z,90.42
2017-09-02T22:56:36.498Z,90.21
2017-09-02T22:59:04.138Z,89.43
2017-09-02T23:01:31.786Z,89.79
2017-09-02T23:03:59.365Z,89.66
2017-09-02T23:06:27.089Z,88.86
2017-09-02T23:08:54.680Z,89.11
2017-09-02T23:11:22.307Z,89.52
2017-09-02T23:13:50.107Z,89.33
2017-09-02T23:16:17.724Z,89.69
2017-09-02T23:18:45.474Z,90.49
2017-09-02T23:21:13.075Z,90.14
2017-09-02T23:23:40.691Z,90.20
2017-09-02T23:26:08.316Z,90.63
2017-09-02T23:28:35.932Z,90.78
2017-09-02T23:31:03.528Z,90.98
2017-09-02T23:33:31.157Z,90.69
2017-09-02T23:35:58.770Z,91.06
2017-09-02T23:38:26.490Z,90.82
2017-09-02T23:40:54.100Z,91.07
2017-09-02T23:43:21.752Z,91.01
2017-09-02T23:45:49.327Z,90.90
2017-09-02T23:48:16.944Z,90.57
2017-09-02T23:50:44.624Z,90.35
2017-09-02T23:53:12.255Z,91.16
2017-09-02T23:55:39.954Z,90.34
2017-09-02T23:58:07.558Z,89.87
